<?xml version='1.0' encoding='utf-8'?>
<gpx xmlns="http://www.topografix.com/GPX/1/1" xmlns:xsi="http://www.w3.org/2001/XMLSchema-instance" version="v1.1.5" creator="iTravel Tech Inc. - http://www.itravel-tech.com" xsi:schemaLocation="http://www.topografix.com/GPX/1/1 http://www.topografix.com/GPX/1/1/gpx.xsd http://www.topografix.com/GPX/gpx_overlay/0/3 http://www.topografix.com/GPX/gpx_overlay/0/3/gpx_overlay.xsd http://www.topografix.com/GPX/gpx_modified/0/1 http://www.topografix.com/GPX/gpx_modified/0/1/gpx_modified.xsd">
<trk>
<name>Holux2011/10/13_18:56</name>
<trkseg>
<trkpt lat="44.430344" lon="34.105839">
<ele>68.3</ele>
<time>2011-10-13T15:56:40Z</time>
<desc>lat.=44.430344, lon.=34.105839, Alt.=-38.029816m. Speed=0.792000m/h.</desc>
<speed>0.220000</speed>
</trkpt>
<trkpt lat="44.430202" lon="34.106003">
<ele>66.3</ele>
<time>2011-10-13T15:56:51Z</time>
<desc>lat.=44.430202, lon.=34.106003, Alt.=71.219788m. Speed=1.944000m/h.</desc>
<speed>0.540000</speed>
</trkpt>
<trkpt lat="44.430866" lon="34.105846">
<ele>73.9</ele>
<time>2011-10-13T15:57:46Z</time>
<desc>lat.=44.430866, lon.=34.105846, Alt.=66.803772m. Speed=7.812000m/h.</desc>
<speed>2.170000</speed>
</trkpt>
<trkpt lat="44.430836" lon="34.105564">
<ele>69.9</ele>
<time>2011-10-13T15:58:06Z</time>
<desc>lat.=44.430836, lon.=34.105564, Alt.=70.145569m. Speed=6.624000m/h.</desc>
<speed>1.840000</speed>
</trkpt>
<trkpt lat="44.431026" lon="34.105434">
<ele>72.8</ele>
<time>2011-10-13T15:59:51Z</time>
<desc>lat.=44.431026, lon.=34.105434, Alt.=73.895569m. Speed=0.648000m/h.</desc>
<speed>0.180000</speed>
</trkpt>
<trkpt lat="44.430492" lon="34.104954">
<ele>68.0</ele>
<time>2011-10-13T16:01:06Z</time>
<desc>lat.=44.430492, lon.=34.104954, Alt.=74.368225m. Speed=5.904000m/h.</desc>
<speed>1.640000</speed>
</trkpt>
<trkpt lat="44.430210" lon="34.104969">
<ele>64.1</ele>
<time>2011-10-13T16:01:31Z</time>
<desc>lat.=44.430210, lon.=34.104969, Alt.=79.020569m. Speed=4.464000m/h.</desc>
<speed>1.240000</speed>
</trkpt>
<trkpt lat="44.429943" lon="34.105335">
<ele>56.5</ele>
<time>2011-10-13T16:01:56Z</time>
<desc>lat.=44.429943, lon.=34.105335, Alt.=76.188538m. Speed=7.092000m/h.</desc>
<speed>1.970000</speed>
</trkpt>
<trkpt lat="44.429138" lon="34.104885">
<ele>49.8</ele>
<time>2011-10-13T16:03:01Z</time>
<desc>lat.=44.429138, lon.=34.104885, Alt.=88.223694m. Speed=2.808000m/h.</desc>
<speed>0.780000</speed>
</trkpt>
<trkpt lat="44.428753" lon="34.103970">
<ele>49.1</ele>
<time>2011-10-13T16:03:51Z</time>
<desc>lat.=44.428753, lon.=34.103970, Alt.=71.137756m. Speed=5.004000m/h.</desc>
<speed>1.390000</speed>
</trkpt>
<trkpt lat="44.428772" lon="34.103088">
<ele>49.0</ele>
<time>2011-10-13T16:04:41Z</time>
<desc>lat.=44.428772, lon.=34.103088, Alt.=69.704163m. Speed=4.608000m/h.</desc>
<speed>1.280000</speed>
</trkpt>
<trkpt lat="44.429253" lon="34.102127">
<ele>45.0</ele>
<time>2011-10-13T16:05:46Z</time>
<desc>lat.=44.429253, lon.=34.102127, Alt.=68.149475m. Speed=4.212000m/h.</desc>
<speed>1.170000</speed>
</trkpt>
<trkpt lat="44.429821" lon="34.101467">
<ele>47.2</ele>
<time>2011-10-13T16:06:36Z</time>
<desc>lat.=44.429821, lon.=34.101467, Alt.=72.040100m. Speed=6.480000m/h.</desc>
<speed>1.800000</speed>
</trkpt>
<trkpt lat="44.430164" lon="34.100056">
<ele>46.1</ele>
<time>2011-10-13T16:07:56Z</time>
<desc>lat.=44.430164, lon.=34.100056, Alt.=76.409241m. Speed=1.440000m/h.</desc>
<speed>0.400000</speed>
</trkpt>
<trkpt lat="44.430401" lon="34.099804">
<ele>50.0</ele>
<time>2011-10-13T16:08:31Z</time>
<desc>lat.=44.430401, lon.=34.099804, Alt.=61.254425m. Speed=1.152000m/h.</desc>
<speed>0.320000</speed>
</trkpt>
<trkpt lat="44.430206" lon="34.099670">
<ele>47.0</ele>
<time>2011-10-13T16:08:56Z</time>
<desc>lat.=44.430206, lon.=34.099670, Alt.=50.445831m. Speed=9.216000m/h.</desc>
<speed>2.560000</speed>
</trkpt>
<trkpt lat="44.430214" lon="34.098183">
<ele>49.0</ele>
<time>2011-10-13T16:10:56Z</time>
<desc>lat.=44.430214, lon.=34.098183, Alt.=53.093292m. Speed=5.292000m/h.</desc>
<speed>1.470000</speed>
</trkpt>
<trkpt lat="44.431053" lon="34.096844">
<ele>51.3</ele>
<time>2011-10-13T16:11:46Z</time>
<desc>lat.=44.431053, lon.=34.096844, Alt.=48.658722m. Speed=7.272000m/h.</desc>
<speed>2.020000</speed>
</trkpt>
<trkpt lat="44.430576" lon="34.096371">
<ele>42.8</ele>
<time>2011-10-13T16:12:11Z</time>
<desc>lat.=44.430576, lon.=34.096371, Alt.=53.510284m. Speed=1.008000m/h.</desc>
<speed>0.280000</speed>
</trkpt>
<trkpt lat="44.430969" lon="34.096725">
<ele>48.6</ele>
<time>2011-10-13T16:16:56Z</time>
<desc>lat.=44.430969, lon.=34.096725, Alt.=74.721741m. Speed=10.944000m/h.</desc>
<speed>3.040000</speed>
</trkpt>
<trkpt lat="44.430122" lon="34.098099">
<ele>47.8</ele>
<time>2011-10-13T16:18:06Z</time>
<desc>lat.=44.430122, lon.=34.098099, Alt.=55.366730m. Speed=6.444000m/h.</desc>
<speed>1.790000</speed>
</trkpt>
<trkpt lat="44.430191" lon="34.099541">
<ele>46.8</ele>
<time>2011-10-13T16:19:16Z</time>
<desc>lat.=44.430191, lon.=34.099541, Alt.=53.946808m. Speed=4.860000m/h.</desc>
<speed>1.350000</speed>
</trkpt>
<trkpt lat="44.430016" lon="34.100811">
<ele>46.8</ele>
<time>2011-10-13T16:20:21Z</time>
<desc>lat.=44.430016, lon.=34.100811, Alt.=56.649933m. Speed=7.848000m/h.</desc>
<speed>2.180000</speed>
</trkpt>
<trkpt lat="44.429905" lon="34.101227">
<ele>47.0</ele>
<time>2011-10-13T16:20:41Z</time>
<desc>lat.=44.429905, lon.=34.101227, Alt.=62.950714m. Speed=2.196000m/h.</desc>
<speed>0.610000</speed>
</trkpt>
<trkpt lat="44.429260" lon="34.101929">
<ele>43.7</ele>
<time>2011-10-13T16:21:41Z</time>
<desc>lat.=44.429260, lon.=34.101929, Alt.=72.178772m. Speed=5.040000m/h.</desc>
<speed>1.400000</speed>
</trkpt>
<trkpt lat="44.428837" lon="34.102745">
<ele>48.3</ele>
<time>2011-10-13T16:22:36Z</time>
<desc>lat.=44.428837, lon.=34.102745, Alt.=82.045959m. Speed=2.520000m/h.</desc>
<speed>0.700000</speed>
</trkpt>
<trkpt lat="44.428726" lon="34.103710">
<ele>49.4</ele>
<time>2011-10-13T16:23:31Z</time>
<desc>lat.=44.428726, lon.=34.103710, Alt.=67.114319m. Speed=4.824000m/h.</desc>
<speed>1.340000</speed>
</trkpt>
<trkpt lat="44.428776" lon="34.104092">
<ele>49.6</ele>
<time>2011-10-13T16:23:51Z</time>
<desc>lat.=44.428776, lon.=34.104092, Alt.=69.876038m. Speed=4.068000m/h.</desc>
<speed>1.130000</speed>
</trkpt>
<trkpt lat="44.429394" lon="34.104908">
<ele>54.1</ele>
<time>2011-10-13T16:24:56Z</time>
<desc>lat.=44.429394, lon.=34.104908, Alt.=76.202209m. Speed=3.924000m/h.</desc>
<speed>1.090000</speed>
</trkpt>
<trkpt lat="44.430065" lon="34.105160">
<ele>60.1</ele>
<time>2011-10-13T16:25:46Z</time>
<desc>lat.=44.430065, lon.=34.105160, Alt.=68.426819m. Speed=3.420000m/h.</desc>
<speed>0.950000</speed>
</trkpt>
<trkpt lat="44.430485" lon="34.104851">
<ele>68.6</ele>
<time>2011-10-13T16:26:26Z</time>
<desc>lat.=44.430485, lon.=34.104851, Alt.=65.690491m. Speed=4.860000m/h.</desc>
<speed>1.350000</speed>
</trkpt>
<trkpt lat="44.430775" lon="34.105484">
<ele>68.3</ele>
<time>2011-10-13T16:27:21Z</time>
<desc>lat.=44.430775, lon.=34.105484, Alt.=68.917053m. Speed=3.060000m/h.</desc>
<speed>0.850000</speed>
</trkpt>
<trkpt lat="44.431019" lon="34.105389">
<ele>72.7</ele>
<time>2011-10-13T16:28:06Z</time>
<desc>lat.=44.431019, lon.=34.105389, Alt.=79.170959m. Speed=1.260000m/h.</desc>
<speed>0.350000</speed>
</trkpt>
<trkpt lat="44.430931" lon="34.105320">
<ele>71.3</ele>
<time>2011-10-13T16:33:31Z</time>
<desc>lat.=44.430931, lon.=34.105320, Alt.=93.965881m. Speed=3.996000m/h.</desc>
<speed>1.110000</speed>
</trkpt>
<trkpt lat="44.431023" lon="34.105652">
<ele>73.4</ele>
<time>2011-10-13T16:34:21Z</time>
<desc>lat.=44.431023, lon.=34.105652, Alt.=88.241272m. Speed=0.108000m/h.</desc>
<speed>0.030000</speed>
</trkpt>
</trkseg>
</trk>
</gpx>